sensor_id;sensor_type;location;lat;lon;timestamp;pressure;altitude;pressure_sealevel;temperature;humidity
35649;BME280;21768;48.562;13.414;2023-02-13T00:01:12;99317.75;;;5.38;70.87
35649;BME280;21768;48.562;13.414;2023-02-13T00:03:37;99320.09;;;5.37;70.76
35649;BME280;21768;48.562;13.414;2023-02-13T00:06:03;99319.91;;;5.35;71.09
35649;BME280;21768;48.562;13.414;2023-02-13T00:08:28;99313.13;;;5.34;71.33
35649;BME280;21768;48.562;13.414;2023-02-13T00:10:54;99324.38;;;5.38;70.85
35649;BME280;21768;48.562;13.414;2023-02-13T00:13:19;99318.47;;;5.37;71.08
35649;BME280;21768;48.562;13.414;2023-02-13T00:15:44;99323.47;;;5.37;70.91
35649;BME280;21768;48.562;13.414;2023-02-13T00:18:10;99314.38;;;5.38;71.19
35649;BME280;21768;48.562;13.414;2023-02-13T00:20:35;99318.47;;;5.37;71.17
35649;BME280;21768;48.562;13.414;2023-02-13T00:23:00;99314.38;;;5.38;70.92
35649;BME280;21768;48.562;13.414;2023-02-13T00:25:26;99312.75;;;5.31;70.94
35649;BME280;21768;48.562;13.414;2023-02-13T00:27:51;99309.72;;;5.27;71.18
35649;BME280;21768;48.562;13.414;2023-02-13T00:30:18;99307.56;;;5.23;71.05
35649;BME280;21768;48.562;13.414;2023-02-13T00:32:44;99309.00;;;5.21;71.20
35649;BME280;21768;48.562;13.414;2023-02-13T00:35:09;99304.75;;;5.12;71.27
35649;BME280;21768;48.562;13.414;2023-02-13T00:37:35;99307.41;;;5.14;71.46
35649;BME280;21768;48.562;13.414;2023-02-13T00:40:00;99301.16;;;5.10;71.35
35649;BME280;21768;48.562;13.414;2023-02-13T00:42:25;99300.81;;;5.07;71.27
35649;BME280;21768;48.562;13.414;2023-02-13T00:44:52;99307.59;;;5.08;71.29
35649;BME280;21768;48.562;13.414;2023-02-13T00:47:18;99313.31;;;5.15;71.15
35649;BME280;21768;48.562;13.414;2023-02-13T00:49:43;99312.25;;;5.12;71.27
35649;BME280;21768;48.562;13.414;2023-02-13T00:52:09;99300.63;;;5.13;71.22
35649;BME280;21768;48.562;13.414;2023-02-13T00:54:34;99309.75;;;5.12;71.40
35649;BME280;21768;48.562;13.414;2023-02-13T00:57:00;99304.38;;;5.17;71.34
35649;BME280;21768;48.562;13.414;2023-02-13T00:59:25;99305.28;;;5.17;71.27
35649;BME280;21768;48.562;13.414;2023-02-13T01:01:50;99309.88;;;5.21;71.31
35649;BME280;21768;48.562;13.414;2023-02-13T01:04:16;99308.09;;;5.20;71.43
35649;BME280;21768;48.562;13.414;2023-02-13T01:06:41;99303.66;;;5.18;71.29
35649;BME280;21768;48.562;13.414;2023-02-13T01:09:07;99311.53;;;5.13;71.33
35649;BME280;21768;48.562;13.414;2023-02-13T01:11:32;99312.25;;;5.12;71.27
35649;BME280;21768;48.562;13.414;2023-02-13T01:13:57;99307.78;;;5.10;71.37
35649;BME280;21768;48.562;13.414;2023-02-13T01:16:23;99310.09;;;5.08;71.19
35649;BME280;21768;48.562;13.414;2023-02-13T01:18:48;99311.88;;;5.09;71.23
35649;BME280;21768;48.562;13.414;2023-02-13T01:21:16;99306.34;;;5.12;71.07
35649;BME280;21768;48.562;13.414;2023-02-13T01:23:42;99307.94;;;5.11;71.46
35649;BME280;21768;48.562;13.414;2023-02-13T01:26:17;99314.03;;;5.13;71.44
35649;BME280;21768;48.562;13.414;2023-02-13T01:28:43;99310.81;;;5.07;71.29
35649;BME280;21768;48.562;13.414;2023-02-13T01:31:08;99305.09;;;5.01;71.29
35649;BME280;21768;48.562;13.414;2023-02-13T01:33:34;99309.00;;;4.99;71.37
35649;BME280;21768;48.562;13.414;2023-02-13T01:36:07;99310.09;;;5.01;71.47
35649;BME280;21768;48.562;13.414;2023-02-13T01:38:33;99313.13;;;4.99;71.33
35649;BME280;21768;48.562;13.414;2023-02-13T01:40:58;99305.09;;;5.01;71.54
35649;BME280;21768;48.562;13.414;2023-02-13T01:43:45;99304.91;;;5.07;71.33
35649;BME280;21768;48.562;13.414;2023-02-13T01:46:13;99302.22;;;5.05;71.27
35649;BME280;21768;48.562;13.414;2023-02-13T01:48:40;99304.38;;;5.09;71.16
35649;BME280;21768;48.562;13.414;2023-02-13T01:51:10;99308.50;;;5.09;71.04
35649;BME280;21768;48.562;13.414;2023-02-13T01:53:41;99306.50;;;5.06;71.10
35649;BME280;21768;48.562;13.414;2023-02-13T01:56:22;99299.53;;;5.04;71.27
35649;BME280;21768;48.562;13.414;2023-02-13T01:58:52;99302.75;;;5.03;71.25
35649;BME280;21768;48.562;13.414;2023-02-13T02:01:19;99303.13;;;5.06;71.32
35649;BME280;21768;48.562;13.414;2023-02-13T02:04:19;99300.63;;;5.06;71.21
35649;BME280;21768;48.562;13.414;2023-02-13T02:06:42;99299.00;;;5.06;71.15
35649;BME280;21768;48.562;13.414;2023-02-13T02:09:12;99298.66;;;5.03;71.10
35649;BME280;21768;48.562;13.414;2023-02-13T02:11:51;99298.84;;;5.05;71.22
35649;BME280;21768;48.562;13.414;2023-02-13T02:14:18;99293.28;;;5.07;71.10
35649;BME280;21768;48.562;13.414;2023-02-13T02:16:44;99301.16;;;5.10;71.20
35649;BME280;21768;48.562;13.414;2023-02-13T02:22:51;99297.59;;;5.08;71.03
35649;BME280;21768;48.562;13.414;2023-02-13T02:41:46;99279.91;;;4.93;71.34
35649;BME280;21768;48.562;13.414;2023-02-13T02:49:50;99269.03;;;4.92;71.25
35649;BME280;21768;48.562;13.414;2023-02-13T02:52:29;99277.25;;;4.91;71.21
35649;BME280;21768;48.562;13.414;2023-02-13T02:57:34;99259.53;;;4.97;71.17
35649;BME280;21768;48.562;13.414;2023-02-13T03:00:22;99262.03;;;4.97;71.18
35649;BME280;21768;48.562;13.414;2023-02-13T03:03:16;99264.91;;;4.93;71.32
35649;BME280;21768;48.562;13.414;2023-02-13T03:06:01;99256.50;;;4.92;71.25
35649;BME280;21768;48.562;13.414;2023-02-13T03:08:40;99262.22;;;4.91;71.33
35649;BME280;21768;48.562;13.414;2023-02-13T03:11:25;99269.91;;;4.93;71.42
35649;BME280;21768;48.562;13.414;2023-02-13T03:14:10;99275.25;;;4.96;71.27
35649;BME280;21768;48.562;13.414;2023-02-13T03:16:38;99278.31;;;4.93;71.44
35649;BME280;21768;48.562;13.414;2023-02-13T03:19:45;99269.03;;;4.92;71.46
35649;BME280;21768;48.562;13.414;2023-02-13T03:28:35;99281.88;;;4.88;71.39
35649;BME280;21768;48.562;13.414;2023-02-13T03:34:08;99282.22;;;4.91;71.55
35649;BME280;21768;48.562;13.414;2023-02-13T03:36:59;99282.22;;;4.91;71.46
35649;BME280;21768;48.562;13.414;2023-02-13T03:45:00;99280.09;;;4.94;71.40
35649;BME280;21768;48.562;13.414;2023-02-13T03:47:48;99283.50;;;4.95;71.49
35649;BME280;21768;48.562;13.414;2023-02-13T03:50:15;99284.03;;;4.92;71.36
35649;BME280;21768;48.562;13.414;2023-02-13T03:55:22;99274.03;;;4.92;71.68
35649;BME280;21768;48.562;13.414;2023-02-13T03:58:23;99274.72;;;4.91;71.33
35649;BME280;21768;48.562;13.414;2023-02-13T04:01:11;99275.81;;;4.93;71.44
35649;BME280;21768;48.562;13.414;2023-02-13T04:06:08;99270.09;;;4.87;71.44
35649;BME280;21768;48.562;13.414;2023-02-13T04:08:35;99273.47;;;4.88;71.49
35649;BME280;21768;48.562;13.414;2023-02-13T04:11:32;99264.00;;;4.85;71.25
35649;BME280;21768;48.562;13.414;2023-02-13T04:14:03;99265.25;;;4.82;71.34
35649;BME280;21768;48.562;13.414;2023-02-13T04:16:34;99272.56;;;4.80;71.53
35649;BME280;21768;48.562;13.414;2023-02-13T04:19:04;99269.38;;;4.81;71.27
35649;BME280;21768;48.562;13.414;2023-02-13T04:21:36;99261.84;;;4.81;71.02
35649;BME280;21768;48.562;13.414;2023-02-13T04:24:03;99264.88;;;4.78;71.20
35649;BME280;21768;48.562;13.414;2023-02-13T04:26:34;99268.63;;;4.75;71.33
35649;BME280;21768;48.562;13.414;2023-02-13T04:29:00;99264.16;;;4.72;71.16
35649;BME280;21768;48.562;13.414;2023-02-13T04:31:26;99264.88;;;4.71;70.99
35649;BME280;21768;48.562;13.414;2023-02-13T04:33:51;99267.22;;;4.70;71.13
35649;BME280;21768;48.562;13.414;2023-02-13T04:36:16;99260.78;;;4.65;71.28
35649;BME280;21768;48.562;13.414;2023-02-13T04:38:42;99270.78;;;4.58;71.13
35649;BME280;21768;48.562;13.414;2023-02-13T04:41:09;99275.06;;;4.59;71.34
35649;BME280;21768;48.562;13.414;2023-02-13T04:43:34;99280.78;;;4.58;71.40
35649;BME280;21768;48.562;13.414;2023-02-13T04:46:00;99272.56;;;4.59;71.20
35649;BME280;21768;48.562;13.414;2023-02-13T04:48:25;99269.34;;;4.60;71.19
35649;BME280;21768;48.562;13.414;2023-02-13T04:50:50;99279.69;;;4.56;71.06
35649;BME280;21768;48.562;13.414;2023-02-13T04:53:16;99281.84;;;4.53;71.16
35649;BME280;21768;48.562;13.414;2023-02-13T04:55:41;99271.81;;;4.45;71.07
35649;BME280;21768;48.562;13.414;2023-02-13T04:58:07;99271.09;;;4.47;70.96
35649;BME280;21768;48.562;13.414;2023-02-13T05:00:32;99274.31;;;4.38;71.11
35649;BME280;21768;48.562;13.414;2023-02-13T05:03:11;99276.81;;;4.31;71.11
35649;BME280;21768;48.562;13.414;2023-02-13T05:05:37;99271.44;;;4.28;71.14
35649;BME280;21768;48.562;13.414;2023-02-13T05:08:04;99267.69;;;4.18;71.42
35649;BME280;21768;48.562;13.414;2023-02-13T05:10:30;99272.16;;;4.20;71.46
35649;BME280;21768;48.562;13.414;2023-02-13T05:12:55;99274.28;;;4.24;71.31
35649;BME280;21768;48.562;13.414;2023-02-13T05:15:21;99266.59;;;4.23;71.21
35649;BME280;21768;48.562;13.414;2023-02-13T05:17:48;99265.19;;;4.25;71.17
35649;BME280;21768;48.562;13.414;2023-02-13T05:20:14;99273.94;;;4.28;71.19
35649;BME280;21768;48.562;13.414;2023-02-13T05:22:58;99272.84;;;4.26;71.17
35649;BME280;21768;48.562;13.414;2023-02-13T05:25:42;99271.97;;;4.26;71.32
35649;BME280;21768;48.562;13.414;2023-02-13T05:28:07;99271.44;;;4.28;71.06
35649;BME280;21768;48.562;13.414;2023-02-13T05:30:51;99273.22;;;4.29;71.15
35649;BME280;21768;48.562;13.414;2023-02-13T05:33:17;99270.91;;;4.31;71.01
35649;BME280;21768;48.562;13.414;2023-02-13T05:35:42;99267.69;;;4.32;70.96
35649;BME280;21768;48.562;13.414;2023-02-13T05:38:08;99264.50;;;4.33;71.08
35649;BME280;21768;48.562;13.414;2023-02-13T05:40:33;99273.59;;;4.32;70.72
35649;BME280;21768;48.562;13.414;2023-02-13T05:42:58;99275.72;;;4.29;70.77
35649;BME280;21768;48.562;13.414;2023-02-13T05:45:24;99276.97;;;4.26;70.96
35649;BME280;21768;48.562;13.414;2023-02-13T05:47:49;99282.84;;;4.26;70.91
35649;BME280;21768;48.562;13.414;2023-02-13T05:50:14;99286.59;;;4.23;70.55
35649;BME280;21768;48.562;13.414;2023-02-13T05:52:40;99287.66;;;4.18;70.78
35649;BME280;21768;48.562;13.414;2023-02-13T05:55:06;99295.69;;;4.22;70.65
35649;BME280;21768;48.562;13.414;2023-02-13T05:57:31;99298.56;;;4.18;70.37
35649;BME280;21768;48.562;13.414;2023-02-13T05:59:56;99286.94;;;4.12;70.37
35649;BME280;21768;48.562;13.414;2023-02-13T06:02:22;99298.84;;;4.07;70.63
35649;BME280;21768;48.562;13.414;2023-02-13T06:04:47;99294.22;;;4.10;70.55
35649;BME280;21768;48.562;13.414;2023-02-13T06:07:12;99299.22;;;4.10;70.32
35649;BME280;21768;48.562;13.414;2023-02-13T06:09:38;99299.22;;;4.10;70.23
35649;BME280;21768;48.562;13.414;2023-02-13T06:12:03;99308.31;;;4.09;70.64
35649;BME280;21768;48.562;13.414;2023-02-13T06:14:29;99313.34;;;4.17;70.44
35649;BME280;21768;48.562;13.414;2023-02-13T06:16:54;99312.13;;;4.20;70.51
35649;BME280;21768;48.562;13.414;2023-02-13T06:19:19;99322.81;;;4.26;70.01
35649;BME280;21768;48.562;13.414;2023-02-13T06:21:45;99320.50;;;4.28;70.13
35649;BME280;21768;48.562;13.414;2023-02-13T06:24:10;99316.78;;;4.31;70.13
35649;BME280;21768;48.562;13.414;2023-02-13T06:26:35;99321.78;;;4.31;69.97
35649;BME280;21768;48.562;13.414;2023-02-13T06:29:01;99317.16;;;4.34;70.06
35649;BME280;21768;48.562;13.414;2023-02-13T06:31:26;99319.66;;;4.41;69.90
35649;BME280;21768;48.562;13.414;2023-02-13T06:33:51;99316.44;;;4.50;69.67
35649;BME280;21768;48.562;13.414;2023-02-13T06:36:17;99316.44;;;4.50;69.63
35649;BME280;21768;48.562;13.414;2023-02-13T06:38:42;99324.13;;;4.51;69.45
35649;BME280;21768;48.562;13.414;2023-02-13T06:41:08;99319.13;;;4.51;69.69
35649;BME280;21768;48.562;13.414;2023-02-13T06:43:34;99324.31;;;4.53;69.63
35649;BME280;21768;48.562;13.414;2023-02-13T06:46:04;99326.44;;;4.50;69.81
35649;BME280;21768;48.562;13.414;2023-02-13T06:48:29;99329.66;;;4.49;69.93
35649;BME280;21768;48.562;13.414;2023-02-13T06:50:55;99324.28;;;4.45;69.99
35649;BME280;21768;48.562;13.414;2023-02-13T06:53:20;99331.44;;;4.50;69.91
35649;BME280;21768;48.562;13.414;2023-02-13T06:55:53;99327.91;;;4.55;70.10
35649;BME280;21768;48.562;13.414;2023-02-13T06:58:21;99328.25;;;4.58;69.73
35649;BME280;21768;48.562;13.414;2023-02-13T07:00:47;99333.25;;;4.58;69.67
35649;BME280;21768;48.562;13.414;2023-02-13T07:03:13;99334.72;;;4.63;69.61
35649;BME280;21768;48.562;13.414;2023-02-13T07:05:39;99334.00;;;4.64;69.67
35649;BME280;21768;48.562;13.414;2023-02-13T07:08:05;99338.28;;;4.65;69.50
35649;BME280;21768;48.562;13.414;2023-02-13T07:10:31;99346.50;;;4.64;69.43
35649;BME280;21768;48.562;13.414;2023-02-13T07:12:56;99340.78;;;4.65;69.62
35649;BME280;21768;48.562;13.414;2023-02-13T07:15:22;99341.16;;;4.68;69.61
35649;BME280;21768;48.562;13.414;2023-02-13T07:17:47;99339.56;;;4.68;69.39
35649;BME280;21768;48.562;13.414;2023-02-13T07:20:12;99344.72;;;4.70;69.56
35649;BME280;21768;48.562;13.414;2023-02-13T07:22:38;99344.16;;;4.72;69.62
35649;BME280;21768;48.562;13.414;2023-02-13T07:25:03;99345.97;;;4.73;69.38
35649;BME280;21768;48.562;13.414;2023-02-13T07:27:29;99354.72;;;4.77;69.14
35649;BME280;21768;48.562;13.414;2023-02-13T07:29:55;99356.16;;;4.82;69.24
35649;BME280;21768;48.562;13.414;2023-02-13T07:32:22;99354.38;;;4.81;69.07
35649;BME280;21768;48.562;13.414;2023-02-13T07:34:48;99363.66;;;4.75;69.07
35649;BME280;21768;48.562;13.414;2023-02-13T07:37:13;99363.28;;;4.72;69.21
35649;BME280;21768;48.562;13.414;2023-02-13T07:39:38;99354.72;;;4.70;68.97
35649;BME280;21768;48.562;13.414;2023-02-13T07:42:04;99365.06;;;4.66;69.43
35649;BME280;21768;48.562;13.414;2023-02-13T07:44:30;99372.06;;;4.68;69.25
35649;BME280;21768;48.562;13.414;2023-02-13T07:46:56;99372.94;;;4.69;69.25
35649;BME280;21768;48.562;13.414;2023-02-13T07:49:21;99370.44;;;4.69;69.19
35649;BME280;21768;48.562;13.414;2023-02-13T07:51:46;99368.09;;;4.63;69.10
35649;BME280;21768;48.562;13.414;2023-02-13T07:54:12;99364.16;;;4.58;69.22
35649;BME280;21768;48.562;13.414;2023-02-13T07:56:37;99367.38;;;4.57;69.41
35649;BME280;21768;48.562;13.414;2023-02-13T07:59:02;99371.84;;;4.60;69.39
35649;BME280;21768;48.562;13.414;2023-02-13T08:01:28;99374.72;;;4.63;69.33
35649;BME280;21768;48.562;13.414;2023-02-13T08:03:53;99373.09;;;4.70;69.13
35649;BME280;21768;48.562;13.414;2023-02-13T08:06:19;99377.59;;;4.80;69.08
35649;BME280;21768;48.562;13.414;2023-02-13T08:08:45;99370.63;;;4.85;68.98
35649;BME280;21768;48.562;13.414;2023-02-13T08:11:27;99371.75;;;4.94;68.72
35649;BME280;21768;48.562;13.414;2023-02-13T08:14:14;99377.81;;;5.03;68.43
35649;BME280;21768;48.562;13.414;2023-02-13T08:16:39;99371.00;;;5.02;68.41
35649;BME280;21768;48.562;13.414;2023-02-13T08:19:04;99368.69;;;5.03;68.34
35649;BME280;21768;48.562;13.414;2023-02-13T08:21:30;99377.44;;;5.07;68.20
35649;BME280;21768;48.562;13.414;2023-02-13T08:23:55;99377.63;;;5.08;68.31
35649;BME280;21768;48.562;13.414;2023-02-13T08:26:21;99378.00;;;5.11;68.21
35649;BME280;21768;48.562;13.414;2023-02-13T08:28:47;99376.56;;;5.13;68.14
35649;BME280;21768;48.562;13.414;2023-02-13T08:31:12;99383.72;;;5.18;68.19
35649;BME280;21768;48.562;13.414;2023-02-13T08:33:38;99387.13;;;5.18;68.23
35649;BME280;21768;48.562;13.414;2023-02-13T08:36:05;99384.06;;;5.21;68.07
35649;BME280;21768;48.562;13.414;2023-02-13T08:38:31;99382.63;;;5.23;68.04
35649;BME280;21768;48.562;13.414;2023-02-13T08:40:57;99384.06;;;5.21;67.99
35649;BME280;21768;48.562;13.414;2023-02-13T08:43:22;99379.78;;;5.27;67.82
35649;BME280;21768;48.562;13.414;2023-02-13T08:45:47;99389.44;;;5.24;68.02
35649;BME280;21768;48.562;13.414;2023-02-13T08:48:13;99385.84;;;5.22;68.25
35649;BME280;21768;48.562;13.414;2023-02-13T08:50:38;99387.66;;;5.30;68.15
35649;BME280;21768;48.562;13.414;2023-02-13T08:53:03;99389.44;;;5.31;68.04
35649;BME280;21768;48.562;13.414;2023-02-13T08:55:29;99387.66;;;5.30;67.77
35649;BME280;21768;48.562;13.414;2023-02-13T08:57:58;99386.75;;;5.29;68.09
35649;BME280;21768;48.562;13.414;2023-02-13T09:00:24;99392.66;;;5.37;67.79
35649;BME280;21768;48.562;13.414;2023-02-13T09:02:50;99390.31;;;5.45;67.49
35649;BME280;21768;48.562;13.414;2023-02-13T09:05:15;99389.25;;;5.51;67.58
35649;BME280;21768;48.562;13.414;2023-02-13T09:07:40;99391.56;;;5.56;67.56
35649;BME280;21768;48.562;13.414;2023-02-13T09:10:06;99401.25;;;5.60;67.37
35649;BME280;21768;48.562;13.414;2023-02-13T09:12:32;99395.88;;;5.64;67.24
35649;BME280;21768;48.562;13.414;2023-02-13T09:14:57;99400.88;;;5.64;67.00
35649;BME280;21768;48.562;13.414;2023-02-13T09:17:23;99403.75;;;5.60;66.88
35649;BME280;21768;48.562;13.414;2023-02-13T09:19:48;99405.88;;;5.57;67.16
35649;BME280;21768;48.562;13.414;2023-02-13T09:22:14;99403.38;;;5.57;67.14
35649;BME280;21768;48.562;13.414;2023-02-13T09:24:41;99404.63;;;5.54;67.06
35649;BME280;21768;48.562;13.414;2023-02-13T09:27:06;99402.84;;;5.45;67.02
35649;BME280;21768;48.562;13.414;2023-02-13T09:29:33;99403.72;;;5.46;67.29
35649;BME280;21768;48.562;13.414;2023-02-13T09:31:59;99404.44;;;5.52;67.18
35649;BME280;21768;48.562;13.414;2023-02-13T09:34:24;99396.59;;;5.42;66.99
35649;BME280;21768;48.562;13.414;2023-02-13T09:36:53;99405.19;;;5.37;67.26
35649;BME280;21768;48.562;13.414;2023-02-13T09:39:19;99394.09;;;5.28;67.13
35649;BME280;21768;48.562;13.414;2023-02-13T09:41:46;99405.88;;;5.29;67.54
35649;BME280;21768;48.562;13.414;2023-02-13T09:44:20;99400.72;;;5.34;67.23
35649;BME280;21768;48.562;13.414;2023-02-13T09:49:41;99403.53;;;5.23;67.45
35649;BME280;21768;48.562;13.414;2023-02-13T09:52:08;99406.75;;;5.22;67.63
35649;BME280;21768;48.562;13.414;2023-02-13T09:54:34;99405.16;;;5.30;67.54
35649;BME280;21768;48.562;13.414;2023-02-13T09:57:11;99406.78;;;5.36;67.66
35649;BME280;21768;48.562;13.414;2023-02-13T09:59:57;99403.72;;;5.25;67.12
35649;BME280;21768;48.562;13.414;2023-02-13T10:13:13;99402.84;;;5.45;67.37
35649;BME280;21768;48.562;13.414;2023-02-13T10:15:52;99405.16;;;5.58;67.36
35649;BME280;21768;48.562;13.414;2023-02-13T10:18:24;99406.78;;;5.65;66.98
35649;BME280;21768;48.562;13.414;2023-02-13T10:20:59;99405.84;;;5.71;67.08
35649;BME280;21768;48.562;13.414;2023-02-13T10:23:43;99399.94;;;5.78;66.61
35649;BME280;21768;48.562;13.414;2023-02-13T10:26:21;99407.66;;;5.79;66.52
35649;BME280;21768;48.562;13.414;2023-02-13T10:29:02;99402.81;;;5.74;66.60
35649;BME280;21768;48.562;13.414;2023-02-13T10:31:49;99411.41;;;5.76;66.71
35649;BME280;21768;48.562;13.414;2023-02-13T10:34:21;99405.50;;;5.75;66.98
35649;BME280;21768;48.562;13.414;2023-02-13T10:36:49;99411.03;;;5.87;66.44
35649;BME280;21768;48.562;13.414;2023-02-13T10:39:25;99405.84;;;5.86;66.58
35649;BME280;21768;48.562;13.414;2023-02-13T10:41:53;99402.31;;;5.91;66.64
35649;BME280;21768;48.562;13.414;2023-02-13T10:50:02;99408.53;;;6.08;66.16
35649;BME280;21768;48.562;13.414;2023-02-13T10:52:56;99404.56;;;6.18;66.13
35649;BME280;21768;48.562;13.414;2023-02-13T10:56:00;99403.44;;;6.23;66.08
35649;BME280;21768;48.562;13.414;2023-02-13T10:59:24;99406.13;;;6.24;65.97
35649;BME280;21768;48.562;13.414;2023-02-13T11:04:07;99402.97;;;6.18;65.94
35649;BME280;21768;48.562;13.414;2023-02-13T11:06:35;99394.00;;;6.13;66.08
35649;BME280;21768;48.562;13.414;2023-02-13T11:09:04;99397.53;;;6.22;66.11
35649;BME280;21768;48.562;13.414;2023-02-13T11:11:41;99393.06;;;6.27;65.87
35649;BME280;21768;48.562;13.414;2023-02-13T11:16:47;99396.06;;;6.38;65.80
35649;BME280;21768;48.562;13.414;2023-02-13T11:19:47;99401.22;;;6.47;65.73
35649;BME280;21768;48.562;13.414;2023-02-13T11:24:57;99399.03;;;6.57;65.27
35649;BME280;21768;48.562;13.414;2023-02-13T11:27:31;99389.34;;;6.60;65.23
35649;BME280;21768;48.562;13.414;2023-02-13T11:30:03;99394.19;;;6.59;64.85
35649;BME280;21768;48.562;13.414;2023-02-13T11:32:31;99391.13;;;6.61;65.30
35649;BME280;21768;48.562;13.414;2023-02-13T11:35:15;99388.78;;;6.63;64.94
35649;BME280;21768;48.562;13.414;2023-02-13T11:37:42;99386.13;;;6.61;65.01
35649;BME280;21768;48.562;13.414;2023-02-13T11:40:28;99386.63;;;6.66;64.91
35649;BME280;21768;48.562;13.414;2023-02-13T11:42:56;99385.91;;;6.67;64.88
35649;BME280;21768;48.562;13.414;2023-02-13T11:45:23;99394.16;;;6.66;65.03
35649;BME280;21768;48.562;13.414;2023-02-13T11:47:51;99390.22;;;6.68;64.74
35649;BME280;21768;48.562;13.414;2023-02-13T11:50:25;99388.34;;;6.74;64.73
35649;BME280;21768;48.562;13.414;2023-02-13T11:55:30;99385.22;;;6.91;64.45
35649;BME280;21768;48.562;13.414;2023-02-13T11:58:23;99383.94;;;6.94;64.46
35649;BME280;21768;48.562;13.414;2023-02-13T12:00:46;99381.94;;;6.99;64.30
35649;BME280;21768;48.562;13.414;2023-02-13T12:03:30;99386.75;;;7.04;64.39
35649;BME280;21768;48.562;13.414;2023-02-13T12:06:20;99387.81;;;7.06;64.32
35649;BME280;21768;48.562;13.414;2023-02-13T12:08:46;99384.78;;;7.02;64.25
35649;BME280;21768;48.562;13.414;2023-02-13T12:11:22;99385.50;;;7.01;64.38
35649;BME280;21768;48.562;13.414;2023-02-13T12:13:50;99382.63;;;7.05;64.40
35649;BME280;21768;48.562;13.414;2023-02-13T12:19:23;99375.25;;;7.06;63.79
35649;BME280;21768;48.562;13.414;2023-02-13T12:24:33;99377.25;;;7.02;63.85
35649;BME280;21768;48.562;13.414;2023-02-13T12:27:26;99368.44;;;7.05;63.94
35649;BME280;21768;48.562;13.414;2023-02-13T12:30:13;99366.25;;;7.15;63.77
35649;BME280;21768;48.562;13.414;2023-02-13T12:51:29;99343.84;;;7.33;63.41
35649;BME280;21768;48.562;13.414;2023-02-13T12:57:01;99344.19;;;7.36;63.17
35649;BME280;21768;48.562;13.414;2023-02-13T13:08:18;99331.41;;;7.41;63.12
35649;BME280;21768;48.562;13.414;2023-02-13T13:14:17;99326.78;;;7.53;62.76
35649;BME280;21768;48.562;13.414;2023-02-13T13:22:17;99325.00;;;7.52;62.33
35649;BME280;21768;48.562;13.414;2023-02-13T13:27:54;99327.84;;;7.55;62.73
35649;BME280;21768;48.562;13.414;2023-02-13T13:30:26;99328.19;;;7.58;62.71
35649;BME280;21768;48.562;13.414;2023-02-13T13:35:31;99327.22;;;7.65;62.32
35649;BME280;21768;48.562;13.414;2023-02-13T13:38:17;99333.31;;;7.67;62.36
35649;BME280;21768;48.562;13.414;2023-02-13T13:46:29;99338.81;;;7.71;62.33
35649;BME280;21768;48.562;13.414;2023-02-13T13:54:44;99320.66;;;7.58;62.55
35649;BME280;21768;48.562;13.414;2023-02-13T13:57:17;99325.69;;;7.58;62.69
35649;BME280;21768;48.562;13.414;2023-02-13T14:07:25;99332.16;;;7.56;62.80
35649;BME280;21768;48.562;13.414;2023-02-13T14:09:50;99322.91;;;7.48;62.68
35649;BME280;21768;48.562;13.414;2023-02-13T14:14:57;99316.09;;;7.47;62.98
35649;BME280;21768;48.562;13.414;2023-02-13T14:20:30;99307.44;;;7.52;62.72
35649;BME280;21768;48.562;13.414;2023-02-13T14:23:06;99305.97;;;7.54;62.66
35649;BME280;21768;48.562;13.414;2023-02-13T14:25:32;99306.47;;;7.59;62.55
35649;BME280;21768;48.562;13.414;2023-02-13T14:28:01;99307.75;;;7.55;62.80
35649;BME280;21768;48.562;13.414;2023-02-13T14:30:33;99309.59;;;7.49;62.69
35649;BME280;21768;48.562;13.414;2023-02-13T14:33:19;99309.94;;;7.52;62.76
35649;BME280;21768;48.562;13.414;2023-02-13T14:35:58;99299.09;;;7.60;62.31
35649;BME280;21768;48.562;13.414;2023-02-13T14:38:25;99301.44;;;7.59;62.50
35649;BME280;21768;48.562;13.414;2023-02-13T14:40:52;99301.44;;;7.59;62.54
35649;BME280;21768;48.562;13.414;2023-02-13T14:43:32;99307.38;;;7.59;62.63
35649;BME280;21768;48.562;13.414;2023-02-13T14:48:40;99300.94;;;7.54;62.64
35649;BME280;21768;48.562;13.414;2023-02-13T14:51:16;99292.19;;;7.50;62.79
35649;BME280;21768;48.562;13.414;2023-02-13T14:53:50;99302.56;;;7.54;62.69
35649;BME280;21768;48.562;13.414;2023-02-13T14:56:19;99297.88;;;7.57;62.66
35649;BME280;21768;48.562;13.414;2023-02-13T15:01:34;99293.69;;;7.64;62.35
35649;BME280;21768;48.562;13.414;2023-02-13T15:04:14;99293.19;;;7.60;62.52
35649;BME280;21768;48.562;13.414;2023-02-13T15:06:43;99286.94;;;7.56;62.71
35649;BME280;21768;48.562;13.414;2023-02-13T15:09:18;99287.50;;;7.54;62.98
35649;BME280;21768;48.562;13.414;2023-02-13T15:11:45;99284.81;;;7.52;62.74
35649;BME280;21768;48.562;13.414;2023-02-13T15:14:18;99282.72;;;7.48;62.99
35649;BME280;21768;48.562;13.414;2023-02-13T15:16:47;99282.88;;;7.49;62.88
35649;BME280;21768;48.562;13.414;2023-02-13T15:19:15;99284.16;;;7.46;62.86
35649;BME280;21768;48.562;13.414;2023-02-13T15:21:53;99282.06;;;7.42;62.98
35649;BME280;21768;48.562;13.414;2023-02-13T15:24:20;99287.97;;;7.42;62.96
35649;BME280;21768;48.562;13.414;2023-02-13T15:26:54;99284.66;;;7.35;63.26
35649;BME280;21768;48.562;13.414;2023-02-13T15:29:20;99285.72;;;7.37;63.09
35649;BME280;21768;48.562;13.414;2023-02-13T15:31:46;99289.66;;;7.35;63.19
35649;BME280;21768;48.562;13.414;2023-02-13T15:34:26;99280.03;;;7.31;63.36
35649;BME280;21768;48.562;13.414;2023-02-13T15:36:54;99281.47;;;7.29;63.31
35649;BME280;21768;48.562;13.414;2023-02-13T15:39:28;99276.84;;;7.25;63.38
35649;BME280;21768;48.562;13.414;2023-02-13T15:41:58;99278.13;;;7.21;63.62
35649;BME280;21768;48.562;13.414;2023-02-13T15:44:28;99276.50;;;7.22;63.52
35649;BME280;21768;48.562;13.414;2023-02-13T15:47:02;99282.97;;;7.20;63.61
35649;BME280;21768;48.562;13.414;2023-02-13T15:49:33;99286.22;;;7.18;63.57
35649;BME280;21768;48.562;13.414;2023-02-13T15:52:07;99285.91;;;7.15;63.76
35649;BME280;21768;48.562;13.414;2023-02-13T15:54:34;99281.44;;;7.13;63.67